This is the latest recevied weather packets stored in our database for station/object TA3HRJ-12. If no packets are shown the sender has not sent any weather packets the latest 10 day(s).
| Time | Temp. | Humidity | Pressure | Rain* | Wind** | Luminosity | Snow |
|---|---|---|---|---|---|---|---|
| 1777571662 | 25° C | 17% | 1026 hPa | - | - | - | - |
| 1777570762 | 25° C | 17% | 1025.9 hPa | - | - | - | - |
| 1777569862 | 26.11° C | 16% | 1026 hPa | - | - | - | - |
| 1777568961 | 26.11° C | 16% | 1025.9 hPa | - | - | - | - |
| 1777568061 | 27.22° C | 15% | 1025.8 hPa | - | - | - | - |
| 1777567161 | 27.22° C | 14% | 1025.7 hPa | - | - | - | - |
| 1777566261 | 28.33° C | 13% | 1025.7 hPa | - | - | - | - |
| 1777565361 | 28.89° C | 12% | 1025.6 hPa | - | - | - | - |
| 1777564461 | 27.78° C | 13% | 1025.6 hPa | - | - | - | - |
| 1777563560 | 29.44° C | 11% | 1025.6 hPa | - | - | - | - |
| 1777562660 | 32.78° C | 9% | 1025.5 hPa | - | - | - | - |
| 1777561760 | 51.67° C | 1% | 1025.4 hPa | - | - | - | - |
| 1777560860 | 53.89° C | 1% | 1025.6 hPa | - | - | - | - |
| 1777559960 | 51.67° C | 1% | 1025.7 hPa | - | - | - | - |
| 1777559059 | 52.22° C | 1% | 1025.6 hPa | - | - | - | - |
| 1777558159 | 58.33° C | 100% | 1025.7 hPa | - | - | - | - |
| 1777557259 | 55.56° C | 1% | 1025.9 hPa | - | - | - | - |
| 1777556359 | 52.78° C | 2% | 1026.1 hPa | - | - | - | - |
| 1777555459 | 39.44° C | 8% | 1026.5 hPa | - | - | - | - |
| 1777554559 | 36.11° C | 9% | 1026.6 hPa | - | - | - | - |
| 1777553659 | 32.78° C | 10% | 1027 hPa | - | - | - | - |
| 1777552759 | 32.78° C | 10% | 1027 hPa | - | - | - | - |
| 1777551858 | 30.56° C | 11% | 1027.2 hPa | - | - | - | - |
| 1777550958 | 29.44° C | 11% | 1027.4 hPa | - | - | - | - |
| 1777550058 | 28.33° C | 12% | 1027.4 hPa | - | - | - | - |
* Rain since midnight (hover to see other rain measurements)
** Current wind speed in m/s (hover to see current wind gust speed)